Time;durP1;ratioP1;P1;durP2;ratioP2;P2;SDS_P1;SDS_P2;PMS_P1;PMS_P2;Temp;Humidity;BMP_temperature;BMP_pressure;BME280_temperature;BME280_humidity;BME280_pressure;Samples;Min_cycle;Max_cycle;Signal;HPM_P1;HPM_P2
2021/12/10 00:01:53;;;;;;;53.30;26.83;;;;;;;;;;5115177;27;20079;-68
2021/12/10 00:04:22;;;;;;;52.63;24.83;;;;;;;;;;5095311;28;20085;-67
2021/12/10 00:06:51;;;;;;;58.42;26.95;;;;;;;;;;5111741;28;20488;-68
2021/12/10 00:09:22;;;;;;;56.28;26.27;;;;;;;;;;5113562;28;20472;-68
2021/12/10 00:11:53;;;;;;;49.35;23.77;;;;;;;;;;5104652;28;20040;-68
2021/12/10 00:14:24;;;;;;;53.53;22.02;;;;;;;;;;5094859;28;20039;-68
2021/12/10 00:16:50;;;;;;;52.05;23.88;;;;;;;;;;5097431;28;20039;-68
2021/12/10 00:22:17;;;;;;;55.70;23.00;;;;;;;;;;5054187;28;20061;-68
2021/12/10 00:24:44;;;;;;;53.92;23.35;;;;;;;;;;5113988;28;20194;-68
2021/12/10 00:27:10;;;;;;;56.08;24.50;;;;;;;;;;5108170;28;20031;-68
2021/12/10 00:29:39;;;;;;;47.65;19.70;;;;;;;;;;5113999;28;20036;-68
2021/12/10 00:32:14;;;;;;;60.15;24.73;;;;;;;;;;5112775;28;20040;-68
2021/12/10 00:34:43;;;;;;;57.22;27.23;;;;;;;;;;5096599;28;20379;-69
2021/12/10 00:37:11;;;;;;;55.42;25.25;;;;;;;;;;5106964;28;20070;-68
2021/12/10 00:39:38;;;;;;;58.72;23.58;;;;;;;;;;5074812;28;20113;-67
2021/12/10 00:42:06;;;;;;;48.15;22.50;;;;;;;;;;5112944;28;20434;-67
2021/12/10 00:44:32;;;;;;;45.65;20.70;;;;;;;;;;5091345;28;20372;-69
2021/12/10 00:46:59;;;;;;;45.95;22.50;;;;;;;;;;5124517;28;20450;-67
2021/12/10 00:49:25;;;;;;;51.22;22.23;;;;;;;;;;5092383;28;20097;-67
2021/12/10 00:51:51;;;;;;;46.05;23.08;;;;;;;;;;5096134;28;20468;-68
2021/12/10 00:54:17;;;;;;;36.65;19.00;;;;;;;;;;5102092;28;20039;-67
2021/12/10 00:56:44;;;;;;;51.65;22.98;;;;;;;;;;5068907;28;20375;-68
2021/12/10 00:59:11;;;;;;;37.78;18.50;;;;;;;;;;5099203;28;20384;-68
2021/12/10 01:01:38;;;;;;;48.60;19.50;;;;;;;;;;5111882;28;20123;-67
2021/12/10 01:04:10;;;;;;;46.45;19.40;;;;;;;;;;5113708;28;20136;-67
2021/12/10 01:06:38;;;;;;;39.30;18.30;;;;;;;;;;5074862;28;20048;-67
2021/12/10 01:09:11;;;;;;;37.83;17.58;;;;;;;;;;5104266;28;20524;-68
2021/12/10 01:11:40;;;;;;;39.45;19.83;;;;;;;;;;5108574;28;20039;-68
2021/12/10 01:14:20;;;;;;;44.15;19.92;;;;;;;;;;5108027;28;20039;-68
2021/12/10 01:25:09;;;;;;;40.40;17.35;;;;;;;;;;5113495;28;20554;-67
2021/12/10 01:27:37;;;;;;;43.20;17.92;;;;;;;;;;5115170;28;20048;-67
2021/12/10 01:30:24;;;;;;;32.15;17.88;;;4.60;99.90;;;;;;5099005;28;20073;-67
2021/12/10 01:32:56;;;;;;;40.40;17.23;;;;;;;;;;5097116;28;20040;-67
2021/12/10 01:35:24;;;;;;;31.15;14.18;;;;;;;;;;5095184;28;20134;-67
2021/12/10 01:37:51;;;;;;;38.47;16.30;;;;;;;;;;5105219;28;20119;-68
2021/12/10 01:40:20;;;;;;;37.13;16.30;;;;;;;;;;5104110;28;20031;-68
2021/12/10 01:42:49;;;;;;;36.38;14.80;;;;;;;;;;5079289;28;20050;-68
2021/12/10 01:45:22;;;;;;;27.70;15.38;;;;;;;;;;5105523;28;20039;-68
2021/12/10 01:47:50;;;;;;;31.35;15.65;;;;;;;;;;5099159;28;20474;-67
2021/12/10 01:50:17;;;;;;;32.45;14.57;;;;;;;;;;5113316;28;20044;-67
2021/12/10 01:52:43;;;;;;;40.35;13.50;;;;;;;;;;5099260;28;20044;-67
2021/12/10 01:55:09;;;;;;;41.15;15.63;;;;;;;;;;5092330;28;20425;-68
2021/12/10 01:57:37;;;;;;;33.20;16.92;;;;;;;;;;5114546;28;20122;-67
2021/12/10 02:00:08;;;;;;;32.63;15.10;;;;;;;;;;5115645;28;20057;-67
2021/12/10 02:02:35;;;;;;;41.33;16.00;;;;;;;;;;5115333;27;20100;-67
2021/12/10 02:05:03;;;;;;;26.65;14.10;;;;;;;;;;5106662;28;20054;-67
2021/12/10 02:07:29;;;;;;;28.65;12.43;;;;;;;;;;5112920;28;20056;-67
2021/12/10 02:09:55;;;;;;;31.27;13.15;;;;;;;;;;5092403;28;20036;-67
2021/12/10 02:12:22;;;;;;;34.10;14.35;;;;;;;;;;5126006;27;20047;-67
2021/12/10 02:14:57;;;;;;;29.75;13.50;;;;;;;;;;5115933;27;20536;-68
2021/12/10 02:17:24;;;;;;;15.07;8.48;;;;;;;;;;5107106;28;20058;-67
2021/12/10 02:19:50;;;;;;;30.02;14.18;;;;;;;;;;5095435;28;20137;-69
2021/12/10 02:22:16;;;;;;;37.33;13.98;;;;;;;;;;5089357;27;20039;-68
2021/12/10 02:24:42;;;;;;;30.50;14.05;;;;;;;;;;5124873;27;20584;-67
2021/12/10 02:27:09;;;;;;;24.15;12.57;;;;;;;;;;5115192;28;20047;-67
2021/12/10 02:29:36;;;;;;;32.50;13.90;;;;;;;;;;5114911;28;20048;-67
2021/12/10 02:32:02;;;;;;;26.75;12.40;;;;;;;;;;5095994;28;20361;-68
2021/12/10 02:34:29;;;;;;;33.10;14.55;;;;;;;;;;5101495;28;20559;-68
2021/12/10 02:36:55;;;;;;;32.70;14.27;;;;;;;;;;5112733;28;20096;-66
2021/12/10 02:39:23;;;;;;;31.70;12.73;;;;;;;;;;5112888;28;20039;-66
2021/12/10 02:41:50;;;;;;;34.10;14.55;;;;;;;;;;5112320;28;20464;-66
2021/12/10 02:44:18;;;;;;;25.65;12.93;;;;;;;;;;5079909;28;20494;-66
2021/12/10 02:46:44;;;;;;;23.48;10.32;;;;;;;;;;5094022;28;20086;-66
2021/12/10 02:49:11;;;;;;;26.20;12.68;;;;;;;;;;5077145;28;20559;-66
2021/12/10 02:51:38;;;;;;;25.83;11.48;;;;;;;;;;5085609;28;20122;-67
2021/12/10 02:54:05;;;;;;;29.20;13.38;;;;;;;;;;5092582;28;20039;-67
2021/12/10 02:56:31;;;;;;;32.85;14.43;;;;;;;;;;5096008;28;20087;-66
2021/12/10 02:58:59;;;;;;;28.38;14.23;;;;;;;;;;5098109;28;20478;-66
2021/12/10 03:01:31;;;;;;;30.63;13.80;;;;;;;;;;5102442;28;20418;-66
2021/12/10 03:03:58;;;;;;;19.42;7.10;;;;;;;;;;5103164;28;20047;-66
2021/12/10 03:06:24;;;;;;;20.85;11.32;;;;;;;;;;5114230;28;20126;-66
2021/12/10 03:08:53;;;;;;;25.98;11.63;;;;;;;;;;5114485;28;20459;-66
2021/12/10 03:11:21;;;;;;;26.23;11.02;;;;;;;;;;5112798;28;20074;-66
2021/12/10 03:13:47;;;;;;;22.45;10.88;;;;;;;;;;5114668;28;20048;-66
2021/12/10 03:16:14;;;;;;;24.40;10.95;;;;;;;;;;5101811;28;20119;-66
2021/12/10 03:18:40;;;;;;;22.67;12.35;;;;;;;;;;5088290;28;20049;-66
2021/12/10 03:21:09;;;;;;;29.90;12.70;;;;;;;;;;5114764;28;20115;-66
2021/12/10 03:23:37;;;;;;;30.17;12.13;;;;;;;;;;5113560;28;20047;-66
2021/12/10 03:26:03;;;;;;;19.55;9.48;;;;;;;;;;5110164;28;20311;-66
2021/12/10 03:28:29;;;;;;;22.40;11.43;;;;;;;;;;5099703;28;20169;-66
2021/12/10 03:30:55;;;;;;;24.13;11.40;;;;;;;;;;5092657;28;20044;-66
2021/12/10 03:33:22;;;;;;;22.25;11.52;;;;;;;;;;5103941;28;20131;-67
2021/12/10 03:35:50;;;;;;;20.58;10.57;;;;;;;;;;5114143;28;20047;-67
2021/12/10 03:38:18;;;;;;;22.67;12.05;;;;;;;;;;5083852;28;20064;-66
2021/12/10 03:40:44;;;;;;;26.77;10.82;;;;;;;;;;5093305;28;20047;-67
2021/12/10 03:43:11;;;;;;;23.17;11.18;;;;;;;;;;5095415;28;20043;-67
2021/12/10 03:45:39;;;;;;;29.00;11.70;;;;;;;;;;5097209;28;20043;-67
2021/12/10 03:48:12;;;;;;;21.38;10.05;;;;;;;;;;5099217;28;20031;-67
2021/12/10 03:50:39;;;;;;;29.52;12.63;;;;;;;;;;5112384;28;20039;-68
2021/12/10 03:53:05;;;;;;;24.52;10.68;;;;;;;;;;5113002;28;20467;-67
2021/12/10 03:55:33;;;;;;;24.42;10.40;;;;;;;;;;5095480;28;20453;-67
2021/12/10 03:58:00;;;;;;;22.23;11.05;;;;;;;;;;5108933;28;20044;-68
2021/12/10 04:00:27;;;;;;;21.45;11.63;;;;;;;;;;5111223;28;20043;-67
2021/12/10 04:02:54;;;;;;;19.40;9.40;;;;;;;;;;5114328;28;20048;-68
2021/12/10 04:05:20;;;;;;;23.35;11.13;;;;;;;;;;5113212;28;20116;-67
2021/12/10 04:07:46;;;;;;;21.55;10.90;;;;;;;;;;5115084;28;20052;-67
2021/12/10 04:10:13;;;;;;;21.67;11.00;;;;;;;;;;5121806;27;20061;-67
2021/12/10 04:12:39;;;;;;;21.00;10.40;;;;;;;;;;5123535;27;20062;-67
2021/12/10 04:15:06;;;;;;;20.02;10.25;;;;;;;;;;5094824;28;20039;-68
2021/12/10 04:17:32;;;;;;;22.15;10.50;;;;;;;;;;5098308;28;20127;-68
2021/12/10 04:19:58;;;;;;;20.85;10.63;;;;;;;;;;5110880;27;20040;-67
2021/12/10 04:22:26;;;;;;;24.08;11.93;;;;;;;;;;5092150;28;20043;-67
2021/12/10 04:24:53;;;;;;;20.83;9.88;;;;;;;;;;5092700;28;20051;-67
2021/12/10 04:27:19;;;;;;;29.13;11.27;;;;;;;;;;5091979;28;20086;-66
2021/12/10 04:29:46;;;;;;;24.02;10.20;;;;;;;;;;5094508;28;20044;-67
2021/12/10 04:32:13;;;;;;;20.13;10.23;;;;;;;;;;5094305;28;20039;-66
2021/12/10 04:34:40;;;;;;;24.58;12.10;;;;;;;;;;5092644;28;20048;-67
2021/12/10 04:37:08;;;;;;;18.58;8.57;;;;;;;;;;5093081;28;20040;-68
2021/12/10 04:39:37;;;;;;;23.52;10.68;;;;;;;;;;5106573;28;20051;-68
2021/12/10 04:42:03;;;;;;;16.85;8.98;;;;;;;;;;5092645;28;20458;-67
2021/12/10 04:44:29;;;;;;;19.10;9.88;;;;;;;;;;5105943;28;20051;-68
2021/12/10 04:46:55;;;;;;;21.63;10.10;;;;;;;;;;5092810;28;20051;-68
2021/12/10 04:49:22;;;;;;;16.80;9.85;;;;;;;;;;5092171;28;20048;-68
2021/12/10 04:51:50;;;;;;;20.35;10.57;;;;;;;;;;5126018;28;20490;-68
2021/12/10 04:54:17;;;;;;;19.95;9.73;;;;;;;;;;5100603;28;20031;-67
2021/12/10 04:56:43;;;;;;;24.52;11.18;;;;;;;;;;5113661;28;20093;-67
2021/12/10 04:59:11;;;;;;;19.00;10.13;;;;;;;;;;5114052;28;20132;-67
2021/12/10 05:01:38;;;;;;;19.77;10.68;;;;;;;;;;5097175;28;20177;-67
2021/12/10 05:04:06;;;;;;;24.70;12.40;;;;;;;;;;5100891;28;20047;-67
2021/12/10 05:06:33;;;;;;;22.73;11.30;;;;;;;;;;5116733;28;20381;-68
2021/12/10 05:08:59;;;;;;;20.50;11.15;;;;;;;;;;5117412;28;20445;-68
2021/12/10 05:11:25;;;;;;;30.08;10.77;;;;;;;;;;5098035;28;20119;-68
2021/12/10 05:13:51;;;;;;;24.08;10.95;;;;;;;;;;5123034;27;20081;-67
2021/12/10 05:16:18;;;;;;;23.23;11.38;;;;;;;;;;5107667;28;20050;-67
2021/12/10 05:18:49;;;;;;;19.88;10.70;;;;;;;;;;5095751;28;20051;-68
2021/12/10 05:21:16;;;;;;;18.80;10.52;;;;;;;;;;5107100;28;20467;-68
2021/12/10 05:23:43;;;;;;;23.85;12.18;;;;;;;;;;5115063;28;20345;-67
2021/12/10 05:26:09;;;;;;;23.30;12.23;;;;;;;;;;5111262;28;20040;-68
2021/12/10 05:28:36;;;;;;;25.67;12.40;;;;;;;;;;5095582;28;20080;-67
2021/12/10 05:31:02;;;;;;;24.73;13.25;;;;;;;;;;5096882;28;20075;-67
2021/12/10 05:33:29;;;;;;;23.08;11.05;;;;;;;;;;5095897;28;20055;-67
2021/12/10 05:35:57;;;;;;;27.13;13.07;;;;;;;;;;5097142;28;20123;-67
2021/12/10 05:38:23;;;;;;;28.30;13.60;;;;;;;;;;5103704;28;20058;-67
2021/12/10 05:40:52;;;;;;;32.00;13.68;;;;;;;;;;5095708;28;20494;-67
2021/12/10 05:43:18;;;;;;;26.73;12.88;;;;;;;;;;5096445;28;20165;-68
2021/12/10 05:45:45;;;;;;;30.60;13.90;;;;;;;;;;5099416;28;20038;-67
2021/12/10 05:48:11;;;;;;;28.85;14.02;;;;;;;;;;5116140;28;20041;-67
2021/12/10 05:50:37;;;;;;;28.65;14.27;;;;;;;;;;5113777;28;20126;-67
2021/12/10 05:53:04;;;;;;;29.95;13.75;;;;;;;;;;5096036;28;20040;-67
2021/12/10 05:55:30;;;;;;;29.98;15.93;;;;;;;;;;5096562;28;20090;-67
2021/12/10 05:57:56;;;;;;;28.90;16.30;;;;;;;;;;5102670;28;20379;-67
2021/12/10 06:00:25;;;;;;;20.23;10.15;;;;;;;;;;5115487;28;20036;-67
2021/12/10 06:02:51;;;;;;;27.13;14.38;;;;;;;;;;5115455;28;20092;-68
2021/12/10 06:05:17;;;;;;;25.60;13.02;;;;;;;;;;5113303;28;20075;-67
2021/12/10 06:07:43;;;;;;;28.83;14.77;;;;;;;;;;5105532;28;20134;-67
2021/12/10 06:10:11;;;;;;;27.42;12.30;;;;;;;;;;5113598;28;20063;-67
2021/12/10 06:12:37;;;;;;;26.77;13.10;;;;;;;;;;5097673;28;20383;-68
2021/12/10 06:15:04;;;;;;;31.00;15.32;;;;;;;;;;5114573;28;20433;-69
2021/12/10 06:17:30;;;;;;;26.35;12.93;;;;;;;;;;5095425;28;20474;-70
2021/12/10 06:19:57;;;;;;;25.40;13.55;;;;;;;;;;5098451;28;20048;-69
2021/12/10 06:22:23;;;;;;;27.48;14.30;;;;;;;;;;5094618;28;20043;-70
2021/12/10 06:24:49;;;;;;;23.88;13.10;;;;;;;;;;5097931;28;20047;-70
2021/12/10 06:27:15;;;;;;;32.78;14.05;;;;;;;;;;5112186;28;20356;-69
2021/12/10 06:29:42;;;;;;;33.17;14.15;;;;;;;;;;5115041;28;20046;-69
2021/12/10 06:32:09;;;;;;;23.98;12.02;;;;;;;;;;5114388;28;20032;-69
2021/12/10 06:34:35;;;;;;;28.15;13.98;;;;;;;;;;5115350;28;20096;-69
2021/12/10 06:37:01;;;;;;;25.70;11.65;;;;;;;;;;5115110;28;20042;-69
2021/12/10 06:39:27;;;;;;;23.02;12.75;;;;;;;;;;5097818;28;20486;-69
2021/12/10 06:41:54;;;;;;;24.58;13.27;;;;;;;;;;5114796;28;20047;-69
2021/12/10 06:44:20;;;;;;;26.90;13.60;;;;;;;;;;5114770;28;20384;-69
2021/12/10 06:46:47;;;;;;;20.67;11.43;;;;;;;;;;5113795;27;20093;-69
2021/12/10 06:49:14;;;;;;;25.88;12.23;;;;;;;;;;5134378;27;20134;-69
2021/12/10 06:51:40;;;;;;;22.48;11.93;;;;;;;;;;5113002;28;20047;-69
2021/12/10 06:54:06;;;;;;;22.02;12.63;;;;;;;;;;5093484;27;20032;-69
2021/12/10 06:56:35;;;;;;;23.00;11.95;;;;;;;;;;5123214;27;20464;-69
2021/12/10 06:59:01;;;;;;;23.65;11.57;;;;;;;;;;5092512;28;20032;-69
2021/12/10 07:01:30;;;;;;;22.80;11.48;;;;;;;;;;5114586;28;20130;-69
2021/12/10 07:03:58;;;;;;;30.60;13.15;;;;;;;;;;5109717;28;20071;-69
2021/12/10 07:06:24;;;;;;;21.70;10.35;;;;;;;;;;5113996;28;20051;-69
2021/12/10 07:08:51;;;;;;;22.23;12.40;;;;;;;;;;5114385;28;20051;-68
2021/12/10 07:11:18;;;;;;;20.63;10.90;;;;;;;;;;5097189;28;20044;-69
2021/12/10 07:13:46;;;;;;;19.17;10.00;;;;;;;;;;5115425;28;20092;-68
2021/12/10 07:16:12;;;;;;;20.63;11.48;;;;;;;;;;5078922;28;20044;-68
2021/12/10 07:18:38;;;;;;;22.05;11.63;;;;;;;;;;5093226;28;20472;-68
2021/12/10 07:21:05;;;;;;;23.15;11.00;;;;;;;;;;5094313;28;20640;-69
2021/12/10 07:23:32;;;;;;;19.80;11.38;;;;;;;;;;5079362;28;20504;-68
2021/12/10 07:25:58;;;;;;;20.95;10.65;;;;;;;;;;5107747;28;20543;-68
2021/12/10 07:28:24;;;;;;;27.42;10.98;;;;;;;;;;5113669;28;20079;-69
2021/12/10 07:30:50;;;;;;;19.95;7.95;;;;;;;;;;5113913;28;20078;-69
2021/12/10 07:33:16;;;;;;;21.10;9.68;;;;;;;;;;5115196;28;20043;-69
2021/12/10 07:35:43;;;;;;;17.75;10.43;;;;;;;;;;5113650;28;20043;-69
2021/12/10 07:38:09;;;;;;;22.42;10.82;;;;;;;;;;5113172;28;20040;-69
2021/12/10 07:40:36;;;;;;;27.98;10.13;;;;;;;;;;5112911;27;20044;-69
2021/12/10 07:43:03;;;;;;;14.57;8.00;;;;;;;;;;5113669;28;20088;-70
2021/12/10 07:45:29;;;;;;;20.67;9.43;;;;;;;;;;5114662;28;20035;-69
2021/12/10 07:47:57;;;;;;;22.45;9.55;;;;;;;;;;5112967;28;20050;-69
2021/12/10 07:50:25;;;;;;;19.73;9.90;;;;;;;;;;5115185;28;20035;-69
2021/12/10 07:52:55;;;;;;;16.70;7.80;;;;;;;;;;5112680;28;20036;-70
2021/12/10 07:55:23;;;;;;;11.48;7.45;;;;;;;;;;5097058;28;20096;-69
2021/12/10 07:57:51;;;;;;;16.70;8.55;;;;;;;;;;5114399;28;20383;-69
2021/12/10 08:00:17;;;;;;;18.85;9.30;;;;;;;;;;5113365;28;20077;-69
2021/12/10 08:02:44;;;;;;;14.00;8.80;;;;;;;;;;5113157;28;20529;-69
2021/12/10 08:05:11;;;;;;;17.17;7.95;;;;;;;;;;5096575;28;20394;-69
2021/12/10 08:07:37;;;;;;;15.25;7.45;;;;;;;;;;5079111;28;20085;-69
2021/12/10 08:10:04;;;;;;;18.25;7.68;;;;;;;;;;5114367;28;20042;-69
2021/12/10 08:12:30;;;;;;;15.30;7.72;;;;;;;;;;5113283;28;20039;-69
2021/12/10 08:14:56;;;;;;;14.55;7.60;;;;;;;;;;5114157;28;20039;-69
2021/12/10 08:17:26;;;;;;;14.30;7.82;;;;;;;;;;5113619;28;20031;-69
2021/12/10 08:19:52;;;;;;;18.05;7.40;;;;;;;;;;5114108;28;20130;-69
2021/12/10 08:22:18;;;;;;;13.65;6.60;;;;;;;;;;5112820;28;20124;-69
2021/12/10 08:24:45;;;;;;;12.77;6.90;;;;;;;;;;5113077;28;20455;-69
2021/12/10 08:27:12;;;;;;;23.55;8.70;;;;;;;;;;5113078;28;20036;-69
2021/12/10 08:29:40;;;;;;;12.98;7.07;;;;;;;;;;5095875;28;20392;-69
2021/12/10 08:32:06;;;;;;;11.13;5.72;;;;;;;;;;5112865;28;20096;-68
2021/12/10 08:34:32;;;;;;;18.77;7.57;;;;;;;;;;5096225;28;20048;-69
2021/12/10 08:36:58;;;;;;;13.73;7.22;;;;;;;;;;5111766;28;20118;-68
2021/12/10 08:39:24;;;;;;;17.02;7.20;;;;;;;;;;5114008;28;20467;-69
2021/12/10 08:41:51;;;;;;;14.05;6.85;;;;;;;;;;5127268;28;20137;-69
2021/12/10 08:44:17;;;;;;;14.10;7.88;;;;;;;;;;5112702;28;20042;-69
2021/12/10 08:46:44;;;;;;;17.20;6.20;;;;;;;;;;5112694;28;20042;-69
2021/12/10 08:49:11;;;;;;;15.40;6.30;;;;;;;;;;5095565;28;20046;-68
2021/12/10 08:51:49;;;;;;;13.93;6.40;;;;;;;;;;5113066;28;20371;-69
2021/12/10 08:54:17;;;;;;;11.05;6.68;;;;;;;;;;5114039;28;20490;-69
2021/12/10 08:56:44;;;;;;;12.40;6.32;;;;;;;;;;5111695;28;20071;-70
2021/12/10 08:59:10;;;;;;;11.85;6.32;;;;;;;;;;5094865;28;20044;-68
2021/12/10 09:01:39;;;;;;;9.45;5.38;;;;;;;;;;5112383;28;20460;-69
2021/12/10 09:04:06;;;;;;;11.23;5.53;;;;;;;;;;5112832;28;20043;-69
2021/12/10 09:06:35;;;;;;;13.15;6.15;;;;;;;;;;5112011;28;20048;-68
2021/12/10 09:09:02;;;;;;;11.85;7.63;;;;;;;;;;5095548;28;20051;-69
2021/12/10 09:11:28;;;;;;;14.68;6.45;;;;;;;;;;5125122;28;20099;-69
2021/12/10 09:13:54;;;;;;;13.77;7.50;;;;;;;;;;5134067;28;20504;-69
2021/12/10 09:16:25;;;;;;;11.20;6.10;;;;;;;;;;5124584;28;20039;-68
2021/12/10 09:18:53;;;;;;;12.55;6.03;;;;;;;;;;5111617;28;20039;-68
2021/12/10 09:21:19;;;;;;;16.38;7.30;;;;;;;;;;5111890;28;20122;-68
2021/12/10 09:23:46;;;;;;;12.50;5.93;;;;;;;;;;5112475;28;20093;-69
2021/12/10 09:26:14;;;;;;;14.40;6.63;;;;;;;;;;5111274;28;20105;-68
2021/12/10 09:28:42;;;;;;;13.63;6.97;;;;;;;;;;5110958;28;20132;-69
2021/12/10 09:31:09;;;;;;;14.20;6.65;;;;;;;;;;5122711;28;20559;-69
2021/12/10 09:33:35;;;;;;;11.93;6.03;;;;;;;;;;5093853;28;20043;-68
2021/12/10 09:36:02;;;;;;;13.98;6.85;;;;;;;;;;5110807;28;20039;-69
2021/12/10 09:38:28;;;;;;;11.63;6.38;;;;;;;;;;5110861;28;20078;-69
2021/12/10 09:40:56;;;;;;;10.43;5.57;;;;;;;;;;5111130;28;20108;-69
2021/12/10 09:43:23;;;;;;;14.43;6.88;;;;;;;;;;5110649;28;20391;-68
2021/12/10 09:45:49;;;;;;;17.80;6.88;;;;;;;;;;5094175;28;20464;-68
2021/12/10 09:48:17;;;;;;;17.05;6.65;;;;;;;;;;5095545;28;20085;-69
2021/12/10 09:50:46;;;;;;;11.15;6.05;;;;;;;;;;5114743;28;20044;-69
2021/12/10 09:53:13;;;;;;;11.25;5.72;;;;;;;;;;5114995;28;20055;-69
2021/12/10 09:55:39;;;;;;;17.40;5.35;;;;;;;;;;5114593;28;20131;-69
2021/12/10 09:58:06;;;;;;;8.25;4.72;;;;;;;;;;5121917;27;20067;-68
2021/12/10 10:00:36;;;;;;;17.60;7.57;;;;;;;;;;5118191;27;20044;-68
2021/12/10 10:03:02;;;;;;;11.47;5.70;;;;;;;;;;5115005;28;20047;-68
2021/12/10 10:05:30;;;;;;;12.55;5.80;;;;;;;;;;5114431;28;20391;-70
2021/12/10 10:07:58;;;;;;;11.45;5.53;;;;;;;;;;5093540;28;20406;-70
2021/12/10 10:10:25;;;;;;;9.73;4.40;;;;;;;;;;5114199;28;20116;-70
2021/12/10 10:12:51;;;;;;;14.48;6.38;;;;;;;;;;5113524;28;20037;-71
2021/12/10 10:15:20;;;;;;;12.32;4.93;;;;;;;;;;5114055;28;20039;-70
2021/12/10 10:17:47;;;;;;;14.07;4.95;;;;;;;;;;5126057;27;20070;-70
2021/12/10 10:20:16;;;;;;;10.43;5.15;;;;;;;;;;5116395;27;20071;-70
2021/12/10 10:22:44;;;;;;;12.05;4.70;;;;;;;;;;5123841;27;20039;-70
2021/12/10 10:25:11;;;;;;;11.85;5.03;;;;;;;;;;5102899;28;20040;-69
2021/12/10 10:27:39;;;;;;;11.45;5.30;;;;;;;;;;5096688;28;20122;-69
2021/12/10 10:30:17;;;;;;;11.93;4.60;;;;;;;;;;5115068;28;20123;-69
2021/12/10 10:32:45;;;;;;;13.00;4.38;;;;;;;;;;5115574;28;20546;-67
2021/12/10 10:35:15;;;;;;;11.23;4.50;;;;;;;;;;5115052;28;20138;-69
2021/12/10 10:37:42;;;;;;;12.15;4.40;;;;;;;;;;5104959;27;20129;-67
2021/12/10 10:40:09;;;;;;;10.00;3.90;;;;;;;;;;5135992;27;20122;-67
2021/12/10 10:42:35;;;;;;;8.65;4.07;;;;;;;;;;5119395;27;20040;-68
2021/12/10 10:45:04;;;;;;;6.93;4.78;;;;;;;;;;5117177;27;20490;-69
2021/12/10 10:47:30;;;;;;;9.85;3.72;;;;;;;;;;5127072;27;20075;-68
2021/12/10 10:49:58;;;;;;;9.77;3.92;;;;;;;;;;5115758;28;20382;-64
2021/12/10 10:52:28;;;;;;;9.13;4.15;;;;;;;;;;5096647;28;20055;-66
2021/12/10 10:54:54;;;;;;;8.65;3.75;;;;;;;;;;5106960;27;20047;-67
2021/12/10 10:57:24;;;;;;;9.48;4.03;;;;;;;;;;5132184;27;20039;-67
2021/12/10 10:59:54;;;;;;;6.78;3.30;;;;;;;;;;5115979;27;20053;-67
2021/12/10 11:02:20;;;;;;;12.35;5.00;;;;;;;;;;5118129;27;20043;-67
2021/12/10 11:04:49;;;;;;;8.35;4.25;;;;;;;;;;5114846;27;20039;-66
2021/12/10 11:07:18;;;;;;;8.68;3.67;;;;;;;;;;5119526;27;20038;-66
2021/12/10 11:09:47;;;;;;;10.50;4.45;;;;;;;;;;5135952;27;20486;-66
2021/12/10 11:12:16;;;;;;;7.70;3.50;;;;;;;;;;5106168;28;20484;-66
2021/12/10 11:14:44;;;;;;;12.07;4.13;;;;;;;;;;5113312;28;20080;-68
2021/12/10 11:17:19;;;;;;;9.38;3.75;;;;;;;;;;5116003;27;20046;-68
2021/12/10 11:19:55;;;;;;;10.15;3.60;;;;;;;;;;5112953;28;20040;-67
2021/12/10 11:22:22;;;;;;;9.75;3.53;;;;;;;;;;5117159;27;20047;-68
2021/12/10 11:25:06;;;;;;;9.60;3.83;;;;;;;;;;5076753;27;20044;-68
2021/12/10 11:27:37;;;;;;;11.75;5.47;;;;;;;;;;5112182;28;20047;-68
2021/12/10 11:30:08;;;;;;;7.22;3.42;;;;;;;;;;5113674;28;20131;-68
2021/12/10 11:32:36;;;;;;;10.48;3.38;;;;;;;;;;5112362;28;20039;-66
2021/12/10 11:35:05;;;;;;;12.82;4.18;;;;;;;;;;5113395;28;20040;-66
2021/12/10 11:37:49;;;;;;;6.78;3.67;;;;;;;;;;5113687;28;20039;-67
2021/12/10 11:40:38;;;;;;;10.15;3.25;;;;;;;;;;5113461;28;20050;-66
2021/12/10 11:43:16;;;;;;;7.22;3.38;;;;;;;;;;5114851;28;20451;-67
2021/12/10 11:46:05;;;;;;;8.73;3.83;;;;;;;;;;5114122;28;20069;-67
2021/12/10 11:48:32;;;;;;;11.73;3.50;;;;;;;;;;5114353;28;20039;-67
2021/12/10 11:51:09;;;;;;;7.10;2.92;;;;;;;;;;5114293;28;20451;-67
2021/12/10 11:53:45;;;;;;;7.82;3.60;;;;;;;;;;5114429;28;20119;-66
2021/12/10 11:56:23;;;;;;;10.23;3.30;;;;;;;;;;5096864;28;20047;-67
2021/12/10 11:59:05;;;;;;;7.07;3.35;;;;;;;;;;5112047;28;20039;-67
2021/12/10 12:01:31;;;;;;;12.95;3.92;;;;;;;;;;5114710;28;20135;-66
2021/12/10 12:03:57;;;;;;;9.00;2.97;;;;;;;;;;5115142;28;20039;-66
2021/12/10 12:06:23;;;;;;;6.80;3.15;;;;;;;;;;5115317;28;20142;-67
2021/12/10 12:08:50;;;;;;;8.07;3.28;;;;;;;;;;5113901;28;20044;-66
2021/12/10 12:11:16;;;;;;;7.30;3.47;;;;;;;;;;5113533;28;20042;-67
2021/12/10 12:13:51;;;;;;;7.00;3.28;;;;;;;;;;5113532;28;20043;-66
2021/12/10 12:16:21;;;;;;;12.13;4.28;;;;;;;;;;5114465;28;20040;-66
2021/12/10 12:18:49;;;;;;;13.15;3.22;;;;;;;;;;5111958;28;20086;-64
2021/12/10 12:27:14;;;;;;;12.20;4.50;;;;;;;;;;5135461;27;20057;-71
2021/12/10 12:29:40;;;;;;;8.82;3.08;;;;;;;;;;5116522;27;20444;-63
2021/12/10 12:32:26;;;;;;;9.73;3.22;;;;;;;;;;5133568;27;20035;-63
2021/12/10 12:34:53;;;;;;;6.47;2.97;;;;;;;;;;5131168;28;20035;-72
2021/12/10 12:37:19;;;;;;;7.78;3.33;;;;;;;;;;5111212;28;20071;-73
2021/12/10 12:40:00;;;;;;;8.75;3.38;;;;;;;;;;5100284;28;20043;-70
2021/12/10 12:42:27;;;;;;;7.43;2.85;;;;;;;;;;5134000;28;20050;-63
2021/12/10 12:44:55;;;;;;;7.75;3.08;;;;;;;;;;5115007;28;20040;-63
2021/12/10 12:47:26;;;;;;;8.30;3.03;;;;;;;;;;5112558;28;20491;-67
2021/12/10 12:49:52;;;;;;;;;;;;;;;;;;5117375;28;20437;-69
2021/12/10 12:52:20;;;;;;;10.23;3.55;;;;;;;;;;5107744;28;19923;-68
2021/12/10 12:55:05;;;;;;;9.05;2.92;;;5.00;99.90;;;;;;5111248;28;20040;-69
2021/12/10 12:58:03;;;;;;;9.30;3.00;;;5.20;99.90;;;;;;5114142;28;20096;-69
2021/12/10 13:00:42;;;;;;;7.18;2.97;;;;;;;;;;5085528;28;20051;-69
2021/12/10 13:03:27;;;;;;;11.25;2.90;;;;;;;;;;5111440;28;20127;-69
2021/12/10 13:06:13;;;;;;;9.10;3.38;;;;;;;;;;5094542;28;20425;-68
2021/12/10 13:08:43;;;;;;;8.10;2.70;;;;;;;;;;5112088;28;20364;-68
2021/12/10 13:11:18;;;;;;;9.82;3.00;;;;;;;;;;5112962;28;20039;-68
2021/12/10 13:13:51;;;;;;;8.65;3.20;;;;;;;;;;5112802;28;20054;-68
2021/12/10 13:16:32;;;;;;;5.90;2.88;;;;;;;;;;5110057;28;20039;-68
2021/12/10 13:18:58;;;;;;;6.85;2.90;;;;;;;;;;5094775;28;20044;-68
2021/12/10 13:21:24;;;;;;;8.13;3.03;;;;;;;;;;5092487;28;20055;-68
2021/12/10 13:23:50;;;;;;;7.93;3.30;;;;;;;;;;5094886;28;20384;-67
2021/12/10 13:26:16;;;;;;;5.20;2.75;;;;;;;;;;5107528;28;20502;-68
2021/12/10 13:28:42;;;;;;;7.07;2.60;;;;;;;;;;5115937;28;20542;-68
2021/12/10 13:31:11;;;;;;;8.18;2.53;;;;;;;;;;5099372;28;20040;-68
2021/12/10 13:33:38;;;;;;;9.57;2.60;;;;;;;;;;5106335;28;20462;-68
2021/12/10 13:36:05;;;;;;;13.90;3.00;;;;;;;;;;5095064;28;20093;-68
2021/12/10 13:38:33;;;;;;;10.05;2.85;;;;;;;;;;5094586;28;20126;-68
2021/12/10 13:41:00;;;;;;;7.97;2.72;;;;;;;;;;5115488;28;20086;-67
2021/12/10 13:43:26;;;;;;;8.35;2.65;;;;;;;;;;5098571;28;20066;-69
2021/12/10 13:45:59;;;;;;;12.68;3.10;;;;;;;;;;5097043;28;20125;-69
2021/12/10 13:48:37;;;;;;;8.95;2.70;;;;;;;;;;5113371;28;20043;-68
2021/12/10 13:51:04;;;;;;;8.23;3.22;;;;;;;;;;5112365;28;20115;-68
2021/12/10 13:53:30;;;;;;;10.95;2.72;;;;;;;;;;5115750;28;20075;-68
2021/12/10 13:55:58;;;;;;;8.23;3.40;;;;;;;;;;5132116;27;20046;-68
2021/12/10 13:58:37;;;;;;;6.05;3.25;;;;;;;;;;5121167;27;20051;-68
2021/12/10 14:01:08;;;;;;;7.00;2.90;;;;;;;;;;5123636;27;20486;-68
2021/12/10 14:04:11;;;;;;;10.20;3.60;;;4.40;99.90;;;;;;5115346;28;20498;-69
2021/12/10 14:06:44;;;;;;;9.75;4.10;;;;;;;;;;5115262;28;20101;-68
2021/12/10 14:09:27;;;;;;;6.80;4.13;;;;;;;;;;5116178;28;20096;-68
2021/12/10 14:12:14;;;;;;;6.25;3.22;;;;;;;;;;5113310;28;20040;-68
2021/12/10 14:14:42;;;;;;;6.53;3.72;;;;;;;;;;5113262;28;20052;-68
2021/12/10 14:17:11;;;;;;;11.30;3.97;;;;;;;;;;5115102;28;20050;-69
2021/12/10 14:19:40;;;;;;;8.70;3.70;;;;;;;;;;5120427;27;20066;-68
2021/12/10 14:22:08;;;;;;;6.63;3.33;;;;;;;;;;5136246;27;20043;-68
2021/12/10 14:24:44;;;;;;;13.23;3.97;;;;;;;;;;5136987;27;20100;-68
2021/12/10 14:27:13;;;;;;;9.38;3.58;;;;;;;;;;5120967;27;20032;-68
2021/12/10 14:29:40;;;;;;;9.00;3.53;;;;;;;;;;5096466;28;20036;-68
2021/12/10 14:32:23;;;;;;;7.93;3.35;;;;;;;;;;5095893;28;20106;-68
2021/12/10 14:35:01;;;;;;;10.43;3.53;;;;;;;;;;5094367;28;20130;-68
2021/12/10 14:37:27;;;;;;;8.50;4.00;;;;;;;;;;5099070;27;20040;-68
2021/12/10 14:40:07;;;;;;;10.70;4.50;;;;;;;;;;5135509;27;20047;-68
2021/12/10 14:42:33;;;;;;;10.07;4.70;;;;;;;;;;5094123;28;20036;-68
2021/12/10 14:45:07;;;;;;;11.65;4.70;;;;;;;;;;5094744;28;20113;-68
2021/12/10 14:47:33;;;;;;;8.70;3.85;;;;;;;;;;5095719;28;20054;-68
2021/12/10 14:50:02;;;;;;;7.93;3.55;;;;;;;;;;5113975;28;20039;-68
2021/12/10 14:52:38;;;;;;;10.30;4.03;;;;;;;;;;5115661;28;20047;-68